sensor_id;sensor_type;location;lat;lon;timestamp;P1;durP1;ratioP1;P2;durP2;ratioP2
5414;SDS011;2730;51.512;7.504;2023-05-27T00:00:29;7.93;;;4.05;;
5414;SDS011;2730;51.512;7.504;2023-05-27T00:02:57;29.08;;;6.60;;
5414;SDS011;2730;51.512;7.504;2023-05-27T00:05:25;21.58;;;5.50;;
5414;SDS011;2730;51.512;7.504;2023-05-27T00:07:52;14.75;;;5.10;;
5414;SDS011;2730;51.512;7.504;2023-05-27T00:10:20;22.02;;;4.72;;
5414;SDS011;2730;51.512;7.504;2023-05-27T00:12:47;15.25;;;5.00;;
5414;SDS011;2730;51.512;7.504;2023-05-27T00:15:14;11.70;;;5.78;;
5414;SDS011;2730;51.512;7.504;2023-05-27T00:17:42;28.35;;;5.43;;
5414;SDS011;2730;51.512;7.504;2023-05-27T00:20:09;10.40;;;4.50;;
5414;SDS011;2730;51.512;7.504;2023-05-27T00:22:37;18.77;;;4.50;;
5414;SDS011;2730;51.512;7.504;2023-05-27T00:25:05;15.10;;;4.97;;
5414;SDS011;2730;51.512;7.504;2023-05-27T00:27:34;26.67;;;4.70;;
5414;SDS011;2730;51.512;7.504;2023-05-27T00:30:01;16.40;;;4.88;;
5414;SDS011;2730;51.512;7.504;2023-05-27T00:32:28;18.48;;;5.22;;
5414;SDS011;2730;51.512;7.504;2023-05-27T00:34:55;17.40;;;4.95;;
5414;SDS011;2730;51.512;7.504;2023-05-27T00:37:21;15.15;;;5.28;;
5414;SDS011;2730;51.512;7.504;2023-05-27T00:39:48;14.52;;;4.57;;
5414;SDS011;2730;51.512;7.504;2023-05-27T00:42:15;12.73;;;5.43;;
5414;SDS011;2730;51.512;7.504;2023-05-27T00:44:43;15.85;;;4.93;;
5414;SDS011;2730;51.512;7.504;2023-05-27T00:47:10;11.80;;;5.00;;
5414;SDS011;2730;51.512;7.504;2023-05-27T00:49:37;13.57;;;4.53;;
5414;SDS011;2730;51.512;7.504;2023-05-27T00:52:04;28.90;;;5.85;;
5414;SDS011;2730;51.512;7.504;2023-05-27T00:54:31;13.82;;;4.10;;
5414;SDS011;2730;51.512;7.504;2023-05-27T00:56:59;25.50;;;5.20;;
5414;SDS011;2730;51.512;7.504;2023-05-27T00:59:27;20.30;;;5.35;;
5414;SDS011;2730;51.512;7.504;2023-05-27T01:01:55;22.27;;;6.25;;
5414;SDS011;2730;51.512;7.504;2023-05-27T01:04:22;23.63;;;5.82;;
5414;SDS011;2730;51.512;7.504;2023-05-27T01:06:53;24.80;;;6.45;;
5414;SDS011;2730;51.512;7.504;2023-05-27T01:09:30;23.67;;;5.85;;
5414;SDS011;2730;51.512;7.504;2023-05-27T01:12:02;9.57;;;4.97;;
5414;SDS011;2730;51.512;7.504;2023-05-27T01:14:34;16.48;;;4.63;;
5414;SDS011;2730;51.512;7.504;2023-05-27T01:17:05;15.73;;;4.40;;
5414;SDS011;2730;51.512;7.504;2023-05-27T01:19:33;13.10;;;5.13;;
5414;SDS011;2730;51.512;7.504;2023-05-27T01:22:01;24.65;;;5.72;;
5414;SDS011;2730;51.512;7.504;2023-05-27T01:24:30;18.85;;;5.40;;
5414;SDS011;2730;51.512;7.504;2023-05-27T01:26:58;14.32;;;5.20;;
5414;SDS011;2730;51.512;7.504;2023-05-27T01:29:27;18.52;;;5.40;;
5414;SDS011;2730;51.512;7.504;2023-05-27T01:31:56;21.13;;;5.00;;
5414;SDS011;2730;51.512;7.504;2023-05-27T01:34:30;26.88;;;7.25;;
5414;SDS011;2730;51.512;7.504;2023-05-27T01:37:02;25.95;;;5.00;;
5414;SDS011;2730;51.512;7.504;2023-05-27T01:39:34;18.60;;;5.82;;
5414;SDS011;2730;51.512;7.504;2023-05-27T01:42:01;16.52;;;5.32;;
5414;SDS011;2730;51.512;7.504;2023-05-27T01:44:31;20.58;;;5.47;;
5414;SDS011;2730;51.512;7.504;2023-05-27T01:46:58;11.82;;;5.85;;
5414;SDS011;2730;51.512;7.504;2023-05-27T01:49:25;13.90;;;5.47;;
5414;SDS011;2730;51.512;7.504;2023-05-27T01:51:52;15.80;;;5.15;;
5414;SDS011;2730;51.512;7.504;2023-05-27T01:54:19;14.55;;;4.75;;
5414;SDS011;2730;51.512;7.504;2023-05-27T01:56:47;24.73;;;5.70;;
5414;SDS011;2730;51.512;7.504;2023-05-27T01:59:14;17.52;;;4.80;;
5414;SDS011;2730;51.512;7.504;2023-05-27T02:01:41;16.83;;;5.43;;
5414;SDS011;2730;51.512;7.504;2023-05-27T02:04:08;26.42;;;5.57;;
5414;SDS011;2730;51.512;7.504;2023-05-27T02:06:35;16.50;;;5.82;;
5414;SDS011;2730;51.512;7.504;2023-05-27T02:09:02;20.80;;;5.85;;
5414;SDS011;2730;51.512;7.504;2023-05-27T02:11:29;27.75;;;6.88;;
5414;SDS011;2730;51.512;7.504;2023-05-27T02:13:57;16.23;;;4.78;;
5414;SDS011;2730;51.512;7.504;2023-05-27T02:16:26;13.60;;;5.35;;
5414;SDS011;2730;51.512;7.504;2023-05-27T02:18:53;20.38;;;5.82;;
5414;SDS011;2730;51.512;7.504;2023-05-27T02:21:21;22.42;;;6.35;;
5414;SDS011;2730;51.512;7.504;2023-05-27T02:23:48;21.10;;;5.65;;
5414;SDS011;2730;51.512;7.504;2023-05-27T02:26:15;21.05;;;5.93;;
5414;SDS011;2730;51.512;7.504;2023-05-27T02:28:42;10.98;;;5.68;;
5414;SDS011;2730;51.512;7.504;2023-05-27T02:31:10;20.60;;;5.70;;
5414;SDS011;2730;51.512;7.504;2023-05-27T02:33:37;16.23;;;6.25;;
5414;SDS011;2730;51.512;7.504;2023-05-27T02:36:04;18.90;;;6.15;;
5414;SDS011;2730;51.512;7.504;2023-05-27T02:38:31;17.65;;;6.03;;
5414;SDS011;2730;51.512;7.504;2023-05-27T02:40:58;28.27;;;6.00;;
5414;SDS011;2730;51.512;7.504;2023-05-27T02:43:24;20.25;;;6.20;;
5414;SDS011;2730;51.512;7.504;2023-05-27T02:45:51;25.17;;;5.53;;
5414;SDS011;2730;51.512;7.504;2023-05-27T02:48:19;15.73;;;5.95;;
5414;SDS011;2730;51.512;7.504;2023-05-27T02:50:49;20.73;;;5.85;;
5414;SDS011;2730;51.512;7.504;2023-05-27T02:53:16;26.35;;;7.78;;
5414;SDS011;2730;51.512;7.504;2023-05-27T02:55:42;23.00;;;6.00;;
5414;SDS011;2730;51.512;7.504;2023-05-27T02:58:09;12.65;;;5.22;;
5414;SDS011;2730;51.512;7.504;2023-05-27T03:00:36;18.63;;;6.03;;
5414;SDS011;2730;51.512;7.504;2023-05-27T03:03:03;21.27;;;7.03;;
5414;SDS011;2730;51.512;7.504;2023-05-27T03:05:33;22.97;;;5.50;;
5414;SDS011;2730;51.512;7.504;2023-05-27T03:08:00;28.02;;;6.55;;
5414;SDS011;2730;51.512;7.504;2023-05-27T03:10:27;21.50;;;6.35;;
5414;SDS011;2730;51.512;7.504;2023-05-27T03:12:53;23.95;;;6.07;;
5414;SDS011;2730;51.512;7.504;2023-05-27T03:15:20;23.05;;;7.03;;
5414;SDS011;2730;51.512;7.504;2023-05-27T03:17:47;15.02;;;6.53;;
5414;SDS011;2730;51.512;7.504;2023-05-27T03:20:14;19.13;;;6.28;;
5414;SDS011;2730;51.512;7.504;2023-05-27T03:22:43;16.27;;;7.47;;
5414;SDS011;2730;51.512;7.504;2023-05-27T03:25:09;31.67;;;8.70;;
5414;SDS011;2730;51.512;7.504;2023-05-27T03:27:37;17.98;;;7.13;;
5414;SDS011;2730;51.512;7.504;2023-05-27T03:30:04;21.83;;;6.95;;
5414;SDS011;2730;51.512;7.504;2023-05-27T03:32:32;28.30;;;6.78;;
5414;SDS011;2730;51.512;7.504;2023-05-27T03:34:59;27.65;;;6.95;;
5414;SDS011;2730;51.512;7.504;2023-05-27T03:37:26;11.70;;;6.40;;
5414;SDS011;2730;51.512;7.504;2023-05-27T03:39:54;21.83;;;6.07;;
5414;SDS011;2730;51.512;7.504;2023-05-27T03:42:22;17.95;;;7.25;;
5414;SDS011;2730;51.512;7.504;2023-05-27T03:44:49;17.65;;;7.68;;
5414;SDS011;2730;51.512;7.504;2023-05-27T03:47:15;23.05;;;9.25;;
5414;SDS011;2730;51.512;7.504;2023-05-27T03:49:45;24.02;;;6.75;;
5414;SDS011;2730;51.512;7.504;2023-05-27T03:52:12;18.67;;;7.18;;
5414;SDS011;2730;51.512;7.504;2023-05-27T03:54:39;22.52;;;7.75;;
5414;SDS011;2730;51.512;7.504;2023-05-27T03:57:08;15.65;;;6.43;;
5414;SDS011;2730;51.512;7.504;2023-05-27T03:59:35;20.55;;;5.88;;
5414;SDS011;2730;51.512;7.504;2023-05-27T04:02:02;16.98;;;6.13;;
5414;SDS011;2730;51.512;7.504;2023-05-27T04:04:29;13.02;;;6.45;;
5414;SDS011;2730;51.512;7.504;2023-05-27T04:06:56;16.90;;;6.20;;
5414;SDS011;2730;51.512;7.504;2023-05-27T04:09:22;21.63;;;6.30;;
5414;SDS011;2730;51.512;7.504;2023-05-27T04:11:49;18.95;;;6.38;;
5414;SDS011;2730;51.512;7.504;2023-05-27T04:14:17;24.88;;;7.60;;
5414;SDS011;2730;51.512;7.504;2023-05-27T04:16:45;28.83;;;6.60;;
5414;SDS011;2730;51.512;7.504;2023-05-27T04:19:12;22.65;;;7.00;;
5414;SDS011;2730;51.512;7.504;2023-05-27T04:21:39;19.33;;;6.60;;
5414;SDS011;2730;51.512;7.504;2023-05-27T04:24:06;23.55;;;6.25;;
5414;SDS011;2730;51.512;7.504;2023-05-27T04:26:33;24.35;;;6.00;;
5414;SDS011;2730;51.512;7.504;2023-05-27T04:29:00;22.80;;;6.72;;
5414;SDS011;2730;51.512;7.504;2023-05-27T04:31:28;15.63;;;5.75;;
5414;SDS011;2730;51.512;7.504;2023-05-27T04:33:55;20.80;;;5.78;;
5414;SDS011;2730;51.512;7.504;2023-05-27T04:36:22;24.08;;;6.05;;
5414;SDS011;2730;51.512;7.504;2023-05-27T04:38:50;27.27;;;6.72;;
5414;SDS011;2730;51.512;7.504;2023-05-27T04:41:16;11.25;;;5.32;;
5414;SDS011;2730;51.512;7.504;2023-05-27T04:43:46;24.08;;;5.95;;
5414;SDS011;2730;51.512;7.504;2023-05-27T04:46:13;21.17;;;7.28;;
5414;SDS011;2730;51.512;7.504;2023-05-27T04:48:41;15.55;;;6.63;;
5414;SDS011;2730;51.512;7.504;2023-05-27T04:51:11;20.75;;;6.45;;
5414;SDS011;2730;51.512;7.504;2023-05-27T04:53:40;16.38;;;6.80;;
5414;SDS011;2730;51.512;7.504;2023-05-27T04:56:07;27.80;;;7.85;;
5414;SDS011;2730;51.512;7.504;2023-05-27T04:58:34;16.00;;;5.57;;
5414;SDS011;2730;51.512;7.504;2023-05-27T05:01:01;19.27;;;5.82;;
5414;SDS011;2730;51.512;7.504;2023-05-27T05:03:29;23.27;;;7.68;;
5414;SDS011;2730;51.512;7.504;2023-05-27T05:06:06;18.88;;;6.13;;
5414;SDS011;2730;51.512;7.504;2023-05-27T05:08:33;22.80;;;6.93;;
5414;SDS011;2730;51.512;7.504;2023-05-27T05:10:59;18.98;;;5.95;;
5414;SDS011;2730;51.512;7.504;2023-05-27T05:13:26;22.10;;;6.65;;
5414;SDS011;2730;51.512;7.504;2023-05-27T05:15:54;21.52;;;6.43;;
5414;SDS011;2730;51.512;7.504;2023-05-27T05:18:21;23.75;;;7.65;;
5414;SDS011;2730;51.512;7.504;2023-05-27T05:20:48;14.18;;;6.53;;
5414;SDS011;2730;51.512;7.504;2023-05-27T05:23:16;19.75;;;6.15;;
5414;SDS011;2730;51.512;7.504;2023-05-27T05:25:43;14.48;;;5.95;;
5414;SDS011;2730;51.512;7.504;2023-05-27T05:28:10;17.10;;;6.80;;
5414;SDS011;2730;51.512;7.504;2023-05-27T05:30:37;22.88;;;7.30;;
5414;SDS011;2730;51.512;7.504;2023-05-27T05:33:04;20.90;;;6.57;;
5414;SDS011;2730;51.512;7.504;2023-05-27T05:35:31;17.35;;;6.03;;
5414;SDS011;2730;51.512;7.504;2023-05-27T05:37:57;12.45;;;5.93;;
5414;SDS011;2730;51.512;7.504;2023-05-27T05:40:25;15.45;;;5.72;;
5414;SDS011;2730;51.512;7.504;2023-05-27T05:42:52;15.02;;;7.05;;
5414;SDS011;2730;51.512;7.504;2023-05-27T05:45:19;16.33;;;6.10;;
5414;SDS011;2730;51.512;7.504;2023-05-27T05:47:46;22.35;;;6.40;;
5414;SDS011;2730;51.512;7.504;2023-05-27T05:50:12;16.15;;;6.18;;
5414;SDS011;2730;51.512;7.504;2023-05-27T05:52:39;21.00;;;6.00;;
5414;SDS011;2730;51.512;7.504;2023-05-27T05:55:06;13.85;;;6.50;;
5414;SDS011;2730;51.512;7.504;2023-05-27T05:57:35;18.38;;;6.45;;
5414;SDS011;2730;51.512;7.504;2023-05-27T06:00:02;22.23;;;7.38;;
5414;SDS011;2730;51.512;7.504;2023-05-27T06:02:30;17.70;;;7.13;;
5414;SDS011;2730;51.512;7.504;2023-05-27T06:04:57;14.10;;;5.57;;
5414;SDS011;2730;51.512;7.504;2023-05-27T06:07:23;14.20;;;5.93;;
5414;SDS011;2730;51.512;7.504;2023-05-27T06:09:50;9.35;;;5.00;;
5414;SDS011;2730;51.512;7.504;2023-05-27T06:12:17;12.65;;;5.30;;
5414;SDS011;2730;51.512;7.504;2023-05-27T06:14:45;13.87;;;5.97;;
5414;SDS011;2730;51.512;7.504;2023-05-27T06:17:12;17.40;;;5.47;;
5414;SDS011;2730;51.512;7.504;2023-05-27T06:19:39;18.73;;;4.93;;
5414;SDS011;2730;51.512;7.504;2023-05-27T06:22:06;11.80;;;5.10;;
5414;SDS011;2730;51.512;7.504;2023-05-27T06:24:33;9.30;;;4.90;;
5414;SDS011;2730;51.512;7.504;2023-05-27T06:27:00;15.77;;;5.97;;
5414;SDS011;2730;51.512;7.504;2023-05-27T06:29:27;14.10;;;6.20;;
5414;SDS011;2730;51.512;7.504;2023-05-27T06:31:55;13.23;;;5.47;;
5414;SDS011;2730;51.512;7.504;2023-05-27T06:34:21;10.30;;;5.33;;
5414;SDS011;2730;51.512;7.504;2023-05-27T06:36:48;19.43;;;6.33;;
5414;SDS011;2730;51.512;7.504;2023-05-27T06:39:15;17.10;;;6.00;;
5414;SDS011;2730;51.512;7.504;2023-05-27T06:41:42;16.63;;;5.60;;
5414;SDS011;2730;51.512;7.504;2023-05-27T06:44:09;22.90;;;6.53;;
5414;SDS011;2730;51.512;7.504;2023-05-27T06:46:35;17.30;;;6.63;;
5414;SDS011;2730;51.512;7.504;2023-05-27T06:49:03;14.80;;;5.20;;
5414;SDS011;2730;51.512;7.504;2023-05-27T06:51:30;11.17;;;5.17;;
5414;SDS011;2730;51.512;7.504;2023-05-27T06:53:58;12.23;;;5.17;;
5414;SDS011;2730;51.512;7.504;2023-05-27T06:56:24;16.33;;;5.23;;
5414;SDS011;2730;51.512;7.504;2023-05-27T06:58:51;18.43;;;5.70;;
5414;SDS011;2730;51.512;7.504;2023-05-27T07:01:18;10.70;;;5.00;;
5414;SDS011;2730;51.512;7.504;2023-05-27T07:03:46;17.10;;;5.00;;
5414;SDS011;2730;51.512;7.504;2023-05-27T07:06:14;16.43;;;5.67;;
5414;SDS011;2730;51.512;7.504;2023-05-27T07:08:41;8.80;;;5.30;;
5414;SDS011;2730;51.512;7.504;2023-05-27T07:11:08;10.50;;;5.80;;
5414;SDS011;2730;51.512;7.504;2023-05-27T07:13:35;9.07;;;4.33;;
5414;SDS011;2730;51.512;7.504;2023-05-27T07:16:01;13.40;;;6.23;;
5414;SDS011;2730;51.512;7.504;2023-05-27T07:18:28;18.87;;;5.87;;
5414;SDS011;2730;51.512;7.504;2023-05-27T07:20:55;14.87;;;5.27;;
5414;SDS011;2730;51.512;7.504;2023-05-27T07:23:23;13.40;;;5.27;;
5414;SDS011;2730;51.512;7.504;2023-05-27T07:25:50;13.80;;;5.83;;
5414;SDS011;2730;51.512;7.504;2023-05-27T07:28:17;11.83;;;5.57;;
5414;SDS011;2730;51.512;7.504;2023-05-27T07:30:43;9.90;;;5.37;;
5414;SDS011;2730;51.512;7.504;2023-05-27T07:33:10;12.97;;;5.60;;
5414;SDS011;2730;51.512;7.504;2023-05-27T07:35:37;16.97;;;5.17;;
5414;SDS011;2730;51.512;7.504;2023-05-27T07:38:04;16.80;;;5.20;;
5414;SDS011;2730;51.512;7.504;2023-05-27T07:40:32;10.57;;;5.00;;
5414;SDS011;2730;51.512;7.504;2023-05-27T07:42:58;10.03;;;5.23;;
5414;SDS011;2730;51.512;7.504;2023-05-27T07:45:25;19.20;;;6.10;;
5414;SDS011;2730;51.512;7.504;2023-05-27T07:47:52;14.70;;;6.33;;
5414;SDS011;2730;51.512;7.504;2023-05-27T07:50:19;8.00;;;5.53;;
5414;SDS011;2730;51.512;7.504;2023-05-27T07:52:46;9.80;;;4.77;;
5414;SDS011;2730;51.512;7.504;2023-05-27T07:55:13;11.40;;;5.23;;
5414;SDS011;2730;51.512;7.504;2023-05-27T07:57:41;14.13;;;5.30;;
5414;SDS011;2730;51.512;7.504;2023-05-27T08:00:09;13.33;;;5.23;;
5414;SDS011;2730;51.512;7.504;2023-05-27T08:02:36;15.47;;;5.60;;
5414;SDS011;2730;51.512;7.504;2023-05-27T08:05:03;14.30;;;6.10;;
5414;SDS011;2730;51.512;7.504;2023-05-27T08:07:30;17.53;;;5.83;;
5414;SDS011;2730;51.512;7.504;2023-05-27T08:09:57;10.30;;;5.40;;
5414;SDS011;2730;51.512;7.504;2023-05-27T08:12:24;10.80;;;5.90;;
5414;SDS011;2730;51.512;7.504;2023-05-27T08:14:52;21.80;;;6.53;;
5414;SDS011;2730;51.512;7.504;2023-05-27T08:17:18;15.50;;;5.03;;
5414;SDS011;2730;51.512;7.504;2023-05-27T08:19:45;16.77;;;5.20;;
5414;SDS011;2730;51.512;7.504;2023-05-27T08:22:12;14.37;;;5.00;;
5414;SDS011;2730;51.512;7.504;2023-05-27T08:24:39;16.27;;;6.17;;
5414;SDS011;2730;51.512;7.504;2023-05-27T08:27:11;10.47;;;5.30;;
5414;SDS011;2730;51.512;7.504;2023-05-27T08:29:39;10.07;;;4.90;;
5414;SDS011;2730;51.512;7.504;2023-05-27T08:32:07;15.53;;;5.30;;
5414;SDS011;2730;51.512;7.504;2023-05-27T08:34:34;17.97;;;6.07;;
5414;SDS011;2730;51.512;7.504;2023-05-27T08:37:00;13.70;;;5.80;;
5414;SDS011;2730;51.512;7.504;2023-05-27T08:39:28;11.60;;;5.70;;
5414;SDS011;2730;51.512;7.504;2023-05-27T08:41:55;13.03;;;5.90;;
5414;SDS011;2730;51.512;7.504;2023-05-27T08:44:22;13.60;;;4.83;;
5414;SDS011;2730;51.512;7.504;2023-05-27T08:46:50;11.37;;;5.17;;
5414;SDS011;2730;51.512;7.504;2023-05-27T08:49:18;15.13;;;5.90;;
5414;SDS011;2730;51.512;7.504;2023-05-27T08:51:45;13.80;;;6.07;;
5414;SDS011;2730;51.512;7.504;2023-05-27T08:54:12;11.87;;;4.77;;
5414;SDS011;2730;51.512;7.504;2023-05-27T08:56:39;12.37;;;5.60;;
5414;SDS011;2730;51.512;7.504;2023-05-27T08:59:06;12.53;;;5.73;;
5414;SDS011;2730;51.512;7.504;2023-05-27T09:01:34;12.33;;;5.30;;
5414;SDS011;2730;51.512;7.504;2023-05-27T09:04:01;9.73;;;5.53;;
5414;SDS011;2730;51.512;7.504;2023-05-27T09:06:29;10.33;;;6.10;;
5414;SDS011;2730;51.512;7.504;2023-05-27T09:08:56;9.00;;;4.67;;
5414;SDS011;2730;51.512;7.504;2023-05-27T09:11:23;10.00;;;5.33;;
5414;SDS011;2730;51.512;7.504;2023-05-27T09:13:52;11.87;;;4.87;;
5414;SDS011;2730;51.512;7.504;2023-05-27T09:16:20;13.37;;;5.67;;
5414;SDS011;2730;51.512;7.504;2023-05-27T09:18:48;13.60;;;5.70;;
5414;SDS011;2730;51.512;7.504;2023-05-27T09:21:15;16.10;;;5.30;;
5414;SDS011;2730;51.512;7.504;2023-05-27T09:23:43;12.60;;;5.20;;
5414;SDS011;2730;51.512;7.504;2023-05-27T09:26:11;17.03;;;5.97;;
5414;SDS011;2730;51.512;7.504;2023-05-27T09:28:38;10.50;;;4.73;;
5414;SDS011;2730;51.512;7.504;2023-05-27T09:31:05;10.93;;;5.20;;
5414;SDS011;2730;51.512;7.504;2023-05-27T09:33:34;16.50;;;4.70;;
5414;SDS011;2730;51.512;7.504;2023-05-27T09:36:03;13.07;;;4.47;;
5414;SDS011;2730;51.512;7.504;2023-05-27T09:38:30;8.17;;;5.03;;
5414;SDS011;2730;51.512;7.504;2023-05-27T09:40:58;9.33;;;4.43;;
5414;SDS011;2730;51.512;7.504;2023-05-27T09:43:26;12.67;;;4.80;;
5414;SDS011;2730;51.512;7.504;2023-05-27T09:45:55;12.73;;;4.23;;
5414;SDS011;2730;51.512;7.504;2023-05-27T09:48:25;11.13;;;4.57;;
5414;SDS011;2730;51.512;7.504;2023-05-27T09:50:55;12.53;;;4.50;;
5414;SDS011;2730;51.512;7.504;2023-05-27T09:53:24;13.90;;;5.37;;
5414;SDS011;2730;51.512;7.504;2023-05-27T09:55:52;11.93;;;4.70;;
5414;SDS011;2730;51.512;7.504;2023-05-27T09:58:21;14.43;;;5.07;;
5414;SDS011;2730;51.512;7.504;2023-05-27T10:00:49;14.47;;;4.50;;
5414;SDS011;2730;51.512;7.504;2023-05-27T10:03:16;13.20;;;5.40;;
5414;SDS011;2730;51.512;7.504;2023-05-27T10:05:46;12.90;;;4.47;;
5414;SDS011;2730;51.512;7.504;2023-05-27T10:08:15;15.20;;;5.00;;
5414;SDS011;2730;51.512;7.504;2023-05-27T10:10:42;9.40;;;4.60;;
5414;SDS011;2730;51.512;7.504;2023-05-27T10:13:10;9.17;;;4.50;;
5414;SDS011;2730;51.512;7.504;2023-05-27T10:15:45;11.53;;;4.20;;
5414;SDS011;2730;51.512;7.504;2023-05-27T10:18:21;9.50;;;3.80;;
5414;SDS011;2730;51.512;7.504;2023-05-27T10:20:49;9.20;;;4.33;;
5414;SDS011;2730;51.512;7.504;2023-05-27T10:23:17;13.07;;;4.97;;
5414;SDS011;2730;51.512;7.504;2023-05-27T10:25:47;11.77;;;5.37;;
5414;SDS011;2730;51.512;7.504;2023-05-27T10:28:25;20.93;;;4.97;;
5414;SDS011;2730;51.512;7.504;2023-05-27T10:31:02;11.27;;;4.50;;
5414;SDS011;2730;51.512;7.504;2023-05-27T10:33:30;13.77;;;4.50;;
5414;SDS011;2730;51.512;7.504;2023-05-27T10:36:03;9.70;;;4.50;;
5414;SDS011;2730;51.512;7.504;2023-05-27T10:38:32;11.20;;;4.30;;
5414;SDS011;2730;51.512;7.504;2023-05-27T10:40:59;12.63;;;4.70;;
5414;SDS011;2730;51.512;7.504;2023-05-27T10:43:27;11.60;;;4.50;;
5414;SDS011;2730;51.512;7.504;2023-05-27T10:46:02;11.10;;;4.30;;
5414;SDS011;2730;51.512;7.504;2023-05-27T10:48:30;15.73;;;4.33;;
5414;SDS011;2730;51.512;7.504;2023-05-27T10:50:58;15.60;;;5.10;;
5414;SDS011;2730;51.512;7.504;2023-05-27T10:53:25;12.83;;;4.30;;
5414;SDS011;2730;51.512;7.504;2023-05-27T10:55:53;9.20;;;4.93;;
5414;SDS011;2730;51.512;7.504;2023-05-27T10:58:21;8.17;;;4.00;;
5414;SDS011;2730;51.512;7.504;2023-05-27T11:00:48;11.23;;;4.80;;
5414;SDS011;2730;51.512;7.504;2023-05-27T11:03:18;10.67;;;4.20;;
5414;SDS011;2730;51.512;7.504;2023-05-27T11:05:46;9.43;;;4.13;;
5414;SDS011;2730;51.512;7.504;2023-05-27T11:08:13;12.93;;;4.40;;
5414;SDS011;2730;51.512;7.504;2023-05-27T11:10:40;14.30;;;3.53;;
5414;SDS011;2730;51.512;7.504;2023-05-27T11:13:07;14.37;;;4.23;;
5414;SDS011;2730;51.512;7.504;2023-05-27T11:15:34;17.97;;;4.93;;
5414;SDS011;2730;51.512;7.504;2023-05-27T11:18:01;7.87;;;4.13;;
5414;SDS011;2730;51.512;7.504;2023-05-27T11:20:35;12.67;;;5.70;;
5414;SDS011;2730;51.512;7.504;2023-05-27T11:23:02;12.90;;;5.57;;
5414;SDS011;2730;51.512;7.504;2023-05-27T11:25:39;11.13;;;3.90;;
5414;SDS011;2730;51.512;7.504;2023-05-27T11:28:12;11.37;;;4.90;;
5414;SDS011;2730;51.512;7.504;2023-05-27T11:30:40;10.70;;;3.43;;
5414;SDS011;2730;51.512;7.504;2023-05-27T11:33:07;11.93;;;4.83;;
5414;SDS011;2730;51.512;7.504;2023-05-27T11:35:35;12.03;;;4.67;;
5414;SDS011;2730;51.512;7.504;2023-05-27T11:38:02;8.13;;;4.63;;
5414;SDS011;2730;51.512;7.504;2023-05-27T11:40:33;13.87;;;4.00;;
5414;SDS011;2730;51.512;7.504;2023-05-27T11:43:00;15.00;;;4.90;;
5414;SDS011;2730;51.512;7.504;2023-05-27T11:45:27;13.97;;;4.70;;
5414;SDS011;2730;51.512;7.504;2023-05-27T11:47:55;17.40;;;4.80;;
5414;SDS011;2730;51.512;7.504;2023-05-27T11:50:22;16.37;;;5.93;;
5414;SDS011;2730;51.512;7.504;2023-05-27T11:52:54;15.83;;;4.53;;
5414;SDS011;2730;51.512;7.504;2023-05-27T11:55:21;10.17;;;4.00;;
5414;SDS011;2730;51.512;7.504;2023-05-27T11:57:48;14.20;;;4.20;;
5414;SDS011;2730;51.512;7.504;2023-05-27T12:00:15;15.57;;;5.00;;
5414;SDS011;2730;51.512;7.504;2023-05-27T12:02:44;10.70;;;5.10;;
5414;SDS011;2730;51.512;7.504;2023-05-27T12:05:11;9.97;;;5.10;;
5414;SDS011;2730;51.512;7.504;2023-05-27T12:07:37;8.70;;;4.73;;
5414;SDS011;2730;51.512;7.504;2023-05-27T12:10:07;15.73;;;5.30;;
5414;SDS011;2730;51.512;7.504;2023-05-27T12:12:34;7.93;;;4.43;;
5414;SDS011;2730;51.512;7.504;2023-05-27T12:15:03;17.07;;;4.80;;
5414;SDS011;2730;51.512;7.504;2023-05-27T12:17:30;11.90;;;5.17;;
5414;SDS011;2730;51.512;7.504;2023-05-27T12:19:57;10.80;;;4.27;;
5414;SDS011;2730;51.512;7.504;2023-05-27T12:22:24;8.33;;;3.53;;
5414;SDS011;2730;51.512;7.504;2023-05-27T12:24:50;10.87;;;4.30;;
5414;SDS011;2730;51.512;7.504;2023-05-27T12:27:19;11.30;;;4.23;;
5414;SDS011;2730;51.512;7.504;2023-05-27T12:29:46;13.13;;;4.33;;
5414;SDS011;2730;51.512;7.504;2023-05-27T12:32:13;11.10;;;4.33;;
5414;SDS011;2730;51.512;7.504;2023-05-27T12:34:40;12.23;;;3.43;;
5414;SDS011;2730;51.512;7.504;2023-05-27T12:37:06;8.30;;;3.87;;
5414;SDS011;2730;51.512;7.504;2023-05-27T12:39:33;7.63;;;4.20;;
5414;SDS011;2730;51.512;7.504;2023-05-27T12:42:00;9.60;;;3.73;;
5414;SDS011;2730;51.512;7.504;2023-05-27T12:44:28;13.27;;;4.10;;
5414;SDS011;2730;51.512;7.504;2023-05-27T12:46:55;10.30;;;4.07;;
5414;SDS011;2730;51.512;7.504;2023-05-27T12:49:22;10.70;;;3.87;;
5414;SDS011;2730;51.512;7.504;2023-05-27T12:51:49;6.40;;;3.70;;
5414;SDS011;2730;51.512;7.504;2023-05-27T12:54:16;8.03;;;4.37;;
5414;SDS011;2730;51.512;7.504;2023-05-27T12:56:42;8.70;;;4.00;;
5414;SDS011;2730;51.512;7.504;2023-05-27T12:59:09;15.93;;;4.00;;
5414;SDS011;2730;51.512;7.504;2023-05-27T13:01:37;6.20;;;3.93;;
5414;SDS011;2730;51.512;7.504;2023-05-27T13:04:04;7.33;;;4.10;;
5414;SDS011;2730;51.512;7.504;2023-05-27T13:06:31;12.70;;;3.80;;
5414;SDS011;2730;51.512;7.504;2023-05-27T13:08:58;7.70;;;3.47;;
5414;SDS011;2730;51.512;7.504;2023-05-27T13:11:24;13.87;;;3.67;;
5414;SDS011;2730;51.512;7.504;2023-05-27T13:13:51;10.17;;;3.73;;
5414;SDS011;2730;51.512;7.504;2023-05-27T13:16:18;18.77;;;4.23;;
5414;SDS011;2730;51.512;7.504;2023-05-27T13:18:46;20.10;;;4.30;;
5414;SDS011;2730;51.512;7.504;2023-05-27T13:21:13;7.87;;;4.10;;
5414;SDS011;2730;51.512;7.504;2023-05-27T13:23:40;8.80;;;3.77;;
5414;SDS011;2730;51.512;7.504;2023-05-27T13:26:07;10.30;;;4.10;;
5414;SDS011;2730;51.512;7.504;2023-05-27T13:28:33;5.80;;;3.40;;
5414;SDS011;2730;51.512;7.504;2023-05-27T13:31:01;12.37;;;4.63;;
5414;SDS011;2730;51.512;7.504;2023-05-27T13:33:29;11.50;;;4.87;;
5414;SDS011;2730;51.512;7.504;2023-05-27T13:35:57;11.87;;;3.23;;
5414;SDS011;2730;51.512;7.504;2023-05-27T13:38:23;7.53;;;3.97;;
5414;SDS011;2730;51.512;7.504;2023-05-27T13:40:50;16.30;;;4.83;;
5414;SDS011;2730;51.512;7.504;2023-05-27T13:43:17;9.43;;;4.50;;
5414;SDS011;2730;51.512;7.504;2023-05-27T13:45:44;6.83;;;3.40;;
5414;SDS011;2730;51.512;7.504;2023-05-27T13:48:11;10.20;;;3.47;;
5414;SDS011;2730;51.512;7.504;2023-05-27T13:50:38;8.83;;;3.87;;
5414;SDS011;2730;51.512;7.504;2023-05-27T13:53:06;7.23;;;3.90;;
5414;SDS011;2730;51.512;7.504;2023-05-27T13:55:32;6.17;;;3.83;;
5414;SDS011;2730;51.512;7.504;2023-05-27T13:57:59;11.10;;;5.00;;
5414;SDS011;2730;51.512;7.504;2023-05-27T14:00:27;7.80;;;4.10;;
5414;SDS011;2730;51.512;7.504;2023-05-27T14:02:55;13.87;;;4.40;;
5414;SDS011;2730;51.512;7.504;2023-05-27T14:05:23;17.20;;;4.17;;
5414;SDS011;2730;51.512;7.504;2023-05-27T14:07:51;7.47;;;4.23;;
5414;SDS011;2730;51.512;7.504;2023-05-27T14:10:19;7.90;;;4.23;;
5414;SDS011;2730;51.512;7.504;2023-05-27T14:12:46;8.23;;;3.70;;
5414;SDS011;2730;51.512;7.504;2023-05-27T14:15:12;9.50;;;3.50;;
5414;SDS011;2730;51.512;7.504;2023-05-27T14:17:39;13.10;;;3.43;;
5414;SDS011;2730;51.512;7.504;2023-05-27T14:20:06;17.73;;;4.10;;
5414;SDS011;2730;51.512;7.504;2023-05-27T14:22:35;7.80;;;3.30;;
5414;SDS011;2730;51.512;7.504;2023-05-27T14:25:02;5.57;;;3.17;;
5414;SDS011;2730;51.512;7.504;2023-05-27T14:27:31;9.43;;;4.20;;
5414;SDS011;2730;51.512;7.504;2023-05-27T14:29:58;11.30;;;4.60;;
5414;SDS011;2730;51.512;7.504;2023-05-27T14:32:25;5.10;;;3.37;;
5414;SDS011;2730;51.512;7.504;2023-05-27T14:34:51;8.63;;;3.80;;
5414;SDS011;2730;51.512;7.504;2023-05-27T14:37:20;10.23;;;4.47;;
5414;SDS011;2730;51.512;7.504;2023-05-27T14:39:47;11.30;;;3.77;;
5414;SDS011;2730;51.512;7.504;2023-05-27T14:42:14;8.63;;;4.10;;
5414;SDS011;2730;51.512;7.504;2023-05-27T14:44:42;5.90;;;3.40;;
5414;SDS011;2730;51.512;7.504;2023-05-27T14:47:09;5.80;;;4.00;;
5414;SDS011;2730;51.512;7.504;2023-05-27T14:49:37;6.43;;;3.67;;
5414;SDS011;2730;51.512;7.504;2023-05-27T14:52:04;12.30;;;3.80;;
5414;SDS011;2730;51.512;7.504;2023-05-27T14:54:31;11.00;;;3.87;;
5414;SDS011;2730;51.512;7.504;2023-05-27T14:56:58;7.57;;;3.50;;
5414;SDS011;2730;51.512;7.504;2023-05-27T14:59:25;6.57;;;4.20;;
5414;SDS011;2730;51.512;7.504;2023-05-27T15:01:53;7.23;;;3.47;;
5414;SDS011;2730;51.512;7.504;2023-05-27T15:04:20;13.50;;;4.00;;